sensor_id;sensor_type;location;lat;lon;timestamp;temperature;humidity
51035;DHT22;37062;52.546;13.230;2024-01-16T00:00:01;3.30;99.90
51035;DHT22;37062;52.546;13.230;2024-01-16T00:02:30;3.30;99.90
51035;DHT22;37062;52.546;13.230;2024-01-16T00:04:58;3.30;99.90
51035;DHT22;37062;52.546;13.230;2024-01-16T00:07:27;3.30;99.90
51035;DHT22;37062;52.546;13.230;2024-01-16T00:09:56;3.30;99.90
51035;DHT22;37062;52.546;13.230;2024-01-16T00:12:25;3.30;99.90
51035;DHT22;37062;52.546;13.230;2024-01-16T00:14:53;3.30;99.90
51035;DHT22;37062;52.546;13.230;2024-01-16T00:17:21;3.30;99.90
51035;DHT22;37062;52.546;13.230;2024-01-16T00:19:50;3.40;99.90
51035;DHT22;37062;52.546;13.230;2024-01-16T00:22:18;3.30;99.90
51035;DHT22;37062;52.546;13.230;2024-01-16T00:24:46;3.30;99.90
51035;DHT22;37062;52.546;13.230;2024-01-16T00:27:16;3.30;99.90
51035;DHT22;37062;52.546;13.230;2024-01-16T00:29:44;3.30;99.90
51035;DHT22;37062;52.546;13.230;2024-01-16T00:32:12;3.30;99.90
51035;DHT22;37062;52.546;13.230;2024-01-16T00:34:43;3.30;99.90
51035;DHT22;37062;52.546;13.230;2024-01-16T00:37:11;3.30;99.90
51035;DHT22;37062;52.546;13.230;2024-01-16T00:39:40;3.20;99.90
51035;DHT22;37062;52.546;13.230;2024-01-16T00:42:08;3.10;99.90
51035;DHT22;37062;52.546;13.230;2024-01-16T00:44:38;3.00;99.90
51035;DHT22;37062;52.546;13.230;2024-01-16T00:47:06;2.90;99.90
51035;DHT22;37062;52.546;13.230;2024-01-16T00:49:35;2.70;99.90
51035;DHT22;37062;52.546;13.230;2024-01-16T00:52:04;2.50;99.90
51035;DHT22;37062;52.546;13.230;2024-01-16T00:54:33;2.40;99.90
51035;DHT22;37062;52.546;13.230;2024-01-16T00:57:01;2.30;99.90
51035;DHT22;37062;52.546;13.230;2024-01-16T00:59:30;2.20;99.90
51035;DHT22;37062;52.546;13.230;2024-01-16T01:01:59;2.10;99.90
51035;DHT22;37062;52.546;13.230;2024-01-16T01:04:28;2.10;99.90
51035;DHT22;37062;52.546;13.230;2024-01-16T01:06:56;1.90;99.90
51035;DHT22;37062;52.546;13.230;2024-01-16T01:09:24;1.90;99.90
51035;DHT22;37062;52.546;13.230;2024-01-16T01:11:53;1.90;99.90
51035;DHT22;37062;52.546;13.230;2024-01-16T01:14:21;1.90;99.90
51035;DHT22;37062;52.546;13.230;2024-01-16T01:16:50;1.90;99.90
51035;DHT22;37062;52.546;13.230;2024-01-16T01:19:19;1.90;99.90
51035;DHT22;37062;52.546;13.230;2024-01-16T01:21:47;1.80;99.90
51035;DHT22;37062;52.546;13.230;2024-01-16T01:24:16;1.90;99.90
51035;DHT22;37062;52.546;13.230;2024-01-16T01:26:44;1.80;99.90
51035;DHT22;37062;52.546;13.230;2024-01-16T01:29:13;1.80;99.90
51035;DHT22;37062;52.546;13.230;2024-01-16T01:31:45;1.80;99.90
51035;DHT22;37062;52.546;13.230;2024-01-16T01:34:15;1.80;99.90
51035;DHT22;37062;52.546;13.230;2024-01-16T01:36:45;1.90;99.90
51035;DHT22;37062;52.546;13.230;2024-01-16T01:39:14;1.60;99.90
51035;DHT22;37062;52.546;13.230;2024-01-16T01:41:43;1.60;99.90
51035;DHT22;37062;52.546;13.230;2024-01-16T01:44:11;1.60;99.90
51035;DHT22;37062;52.546;13.230;2024-01-16T01:46:44;1.60;99.90
51035;DHT22;37062;52.546;13.230;2024-01-16T01:49:14;1.40;99.90
51035;DHT22;37062;52.546;13.230;2024-01-16T01:51:45;1.30;99.90
51035;DHT22;37062;52.546;13.230;2024-01-16T01:54:14;1.40;99.90
51035;DHT22;37062;52.546;13.230;2024-01-16T01:56:44;1.50;99.90
51035;DHT22;37062;52.546;13.230;2024-01-16T01:59:14;1.60;99.90
51035;DHT22;37062;52.546;13.230;2024-01-16T02:01:42;1.60;99.90
51035;DHT22;37062;52.546;13.230;2024-01-16T02:04:13;1.70;99.90
51035;DHT22;37062;52.546;13.230;2024-01-16T02:06:43;1.70;99.90
51035;DHT22;37062;52.546;13.230;2024-01-16T02:09:13;1.80;99.90
51035;DHT22;37062;52.546;13.230;2024-01-16T02:11:41;1.80;99.90
51035;DHT22;37062;52.546;13.230;2024-01-16T02:14:10;1.90;99.90
51035;DHT22;37062;52.546;13.230;2024-01-16T02:16:40;1.90;99.90
51035;DHT22;37062;52.546;13.230;2024-01-16T02:19:08;1.80;99.90
51035;DHT22;37062;52.546;13.230;2024-01-16T02:21:38;1.80;99.90
51035;DHT22;37062;52.546;13.230;2024-01-16T02:24:10;1.80;99.90
51035;DHT22;37062;52.546;13.230;2024-01-16T02:26:38;1.90;99.90
51035;DHT22;37062;52.546;13.230;2024-01-16T02:29:07;1.90;99.90
51035;DHT22;37062;52.546;13.230;2024-01-16T02:31:35;2.00;99.90
51035;DHT22;37062;52.546;13.230;2024-01-16T02:34:04;2.00;99.90
51035;DHT22;37062;52.546;13.230;2024-01-16T02:36:32;2.00;99.90
51035;DHT22;37062;52.546;13.230;2024-01-16T02:39:01;2.00;99.90
51035;DHT22;37062;52.546;13.230;2024-01-16T02:41:30;1.90;99.90
51035;DHT22;37062;52.546;13.230;2024-01-16T02:43:59;1.90;99.90
51035;DHT22;37062;52.546;13.230;2024-01-16T02:46:27;1.90;99.90
51035;DHT22;37062;52.546;13.230;2024-01-16T02:48:55;1.90;99.90
51035;DHT22;37062;52.546;13.230;2024-01-16T02:51:23;1.80;99.90
51035;DHT22;37062;52.546;13.230;2024-01-16T02:53:52;1.70;99.90
51035;DHT22;37062;52.546;13.230;2024-01-16T02:56:20;1.60;99.90
51035;DHT22;37062;52.546;13.230;2024-01-16T02:58:50;1.60;99.90
51035;DHT22;37062;52.546;13.230;2024-01-16T03:01:18;1.60;99.90
51035;DHT22;37062;52.546;13.230;2024-01-16T03:03:46;1.60;99.90
51035;DHT22;37062;52.546;13.230;2024-01-16T03:06:21;1.70;99.90
51035;DHT22;37062;52.546;13.230;2024-01-16T03:08:50;1.70;99.90
51035;DHT22;37062;52.546;13.230;2024-01-16T03:11:19;1.60;99.90
51035;DHT22;37062;52.546;13.230;2024-01-16T03:13:47;1.60;99.90
51035;DHT22;37062;52.546;13.230;2024-01-16T03:16:17;1.60;99.90
51035;DHT22;37062;52.546;13.230;2024-01-16T03:18:46;1.60;99.90
51035;DHT22;37062;52.546;13.230;2024-01-16T03:21:14;1.60;99.90
51035;DHT22;37062;52.546;13.230;2024-01-16T03:23:43;1.60;99.90
51035;DHT22;37062;52.546;13.230;2024-01-16T03:26:12;1.70;99.90
51035;DHT22;37062;52.546;13.230;2024-01-16T03:28:41;1.70;99.90
51035;DHT22;37062;52.546;13.230;2024-01-16T03:31:09;1.70;99.90
51035;DHT22;37062;52.546;13.230;2024-01-16T03:33:41;1.80;99.90
51035;DHT22;37062;52.546;13.230;2024-01-16T03:36:11;1.80;99.90
51035;DHT22;37062;52.546;13.230;2024-01-16T03:38:41;1.80;99.90
51035;DHT22;37062;52.546;13.230;2024-01-16T03:41:11;1.80;99.90
51035;DHT22;37062;52.546;13.230;2024-01-16T03:43:39;1.80;99.90
51035;DHT22;37062;52.546;13.230;2024-01-16T03:46:10;1.90;99.90
51035;DHT22;37062;52.546;13.230;2024-01-16T03:48:38;1.90;99.90
51035;DHT22;37062;52.546;13.230;2024-01-16T03:51:09;1.90;99.90
51035;DHT22;37062;52.546;13.230;2024-01-16T03:53:36;1.80;99.90
51035;DHT22;37062;52.546;13.230;2024-01-16T03:56:04;1.80;99.90
51035;DHT22;37062;52.546;13.230;2024-01-16T03:58:35;1.80;99.90
51035;DHT22;37062;52.546;13.230;2024-01-16T04:01:03;1.80;99.90
51035;DHT22;37062;52.546;13.230;2024-01-16T04:03:31;1.90;99.90
51035;DHT22;37062;52.546;13.230;2024-01-16T04:05:59;1.90;99.90
51035;DHT22;37062;52.546;13.230;2024-01-16T04:08:29;1.90;99.90
51035;DHT22;37062;52.546;13.230;2024-01-16T04:10:57;1.80;99.90
51035;DHT22;37062;52.546;13.230;2024-01-16T04:13:26;1.80;99.90
51035;DHT22;37062;52.546;13.230;2024-01-16T04:15:54;1.90;99.90
51035;DHT22;37062;52.546;13.230;2024-01-16T04:18:23;1.90;99.90
51035;DHT22;37062;52.546;13.230;2024-01-16T04:20:51;2.00;99.90
51035;DHT22;37062;52.546;13.230;2024-01-16T04:23:19;2.00;99.90
51035;DHT22;37062;52.546;13.230;2024-01-16T04:25:49;2.00;99.90
51035;DHT22;37062;52.546;13.230;2024-01-16T04:28:17;2.00;99.90
51035;DHT22;37062;52.546;13.230;2024-01-16T04:30:45;2.00;99.90
51035;DHT22;37062;52.546;13.230;2024-01-16T04:33:14;2.00;99.90
51035;DHT22;37062;52.546;13.230;2024-01-16T04:35:43;1.90;99.90
51035;DHT22;37062;52.546;13.230;2024-01-16T04:38:11;1.80;99.90
51035;DHT22;37062;52.546;13.230;2024-01-16T04:40:40;1.80;99.90
51035;DHT22;37062;52.546;13.230;2024-01-16T04:43:09;1.80;99.90
51035;DHT22;37062;52.546;13.230;2024-01-16T04:45:37;1.70;99.90
51035;DHT22;37062;52.546;13.230;2024-01-16T04:48:06;1.70;99.90
51035;DHT22;37062;52.546;13.230;2024-01-16T04:50:35;1.70;99.90
51035;DHT22;37062;52.546;13.230;2024-01-16T04:53:04;1.60;99.90
51035;DHT22;37062;52.546;13.230;2024-01-16T04:55:32;1.50;99.90
51035;DHT22;37062;52.546;13.230;2024-01-16T04:58:01;1.40;99.90
51035;DHT22;37062;52.546;13.230;2024-01-16T05:00:30;1.40;99.90
51035;DHT22;37062;52.546;13.230;2024-01-16T05:02:59;1.40;99.90
51035;DHT22;37062;52.546;13.230;2024-01-16T05:05:27;1.40;99.90
51035;DHT22;37062;52.546;13.230;2024-01-16T05:07:56;1.50;99.90
51035;DHT22;37062;52.546;13.230;2024-01-16T05:10:24;1.50;99.90
51035;DHT22;37062;52.546;13.230;2024-01-16T05:12:53;1.60;99.90
51035;DHT22;37062;52.546;13.230;2024-01-16T05:15:21;1.60;99.90
51035;DHT22;37062;52.546;13.230;2024-01-16T05:17:50;1.60;99.90
51035;DHT22;37062;52.546;13.230;2024-01-16T05:20:20;1.60;99.90
51035;DHT22;37062;52.546;13.230;2024-01-16T05:22:49;1.60;99.90
51035;DHT22;37062;52.546;13.230;2024-01-16T05:25:17;1.50;99.90
51035;DHT22;37062;52.546;13.230;2024-01-16T05:27:46;1.50;99.90
51035;DHT22;37062;52.546;13.230;2024-01-16T05:30:16;1.40;99.90
51035;DHT22;37062;52.546;13.230;2024-01-16T05:32:44;1.40;99.90
51035;DHT22;37062;52.546;13.230;2024-01-16T05:35:15;1.40;99.90
51035;DHT22;37062;52.546;13.230;2024-01-16T05:37:43;1.30;99.90
51035;DHT22;37062;52.546;13.230;2024-01-16T05:40:11;1.20;99.90
51035;DHT22;37062;52.546;13.230;2024-01-16T05:42:40;1.20;99.90
51035;DHT22;37062;52.546;13.230;2024-01-16T05:45:09;1.20;99.90
51035;DHT22;37062;52.546;13.230;2024-01-16T05:47:37;1.30;99.90
51035;DHT22;37062;52.546;13.230;2024-01-16T05:50:07;1.20;99.90
51035;DHT22;37062;52.546;13.230;2024-01-16T05:52:37;1.20;99.90
51035;DHT22;37062;52.546;13.230;2024-01-16T05:55:09;1.10;99.90
51035;DHT22;37062;52.546;13.230;2024-01-16T05:57:38;1.00;99.90
51035;DHT22;37062;52.546;13.230;2024-01-16T06:00:07;1.00;99.90
51035;DHT22;37062;52.546;13.230;2024-01-16T06:02:35;0.90;99.90
51035;DHT22;37062;52.546;13.230;2024-01-16T06:05:04;0.90;99.90
51035;DHT22;37062;52.546;13.230;2024-01-16T06:07:32;0.90;99.90
51035;DHT22;37062;52.546;13.230;2024-01-16T06:10:02;0.90;99.90
51035;DHT22;37062;52.546;13.230;2024-01-16T06:12:33;0.90;99.90
51035;DHT22;37062;52.546;13.230;2024-01-16T06:15:02;0.80;99.90
51035;DHT22;37062;52.546;13.230;2024-01-16T06:17:30;0.80;99.90
51035;DHT22;37062;52.546;13.230;2024-01-16T06:19:59;0.90;99.90
51035;DHT22;37062;52.546;13.230;2024-01-16T06:22:27;0.90;99.90
51035;DHT22;37062;52.546;13.230;2024-01-16T06:24:55;0.90;99.90
51035;DHT22;37062;52.546;13.230;2024-01-16T06:27:25;0.90;99.90
51035;DHT22;37062;52.546;13.230;2024-01-16T06:29:53;0.80;99.90
51035;DHT22;37062;52.546;13.230;2024-01-16T06:32:22;0.80;99.90
51035;DHT22;37062;52.546;13.230;2024-01-16T06:34:50;0.90;99.90
51035;DHT22;37062;52.546;13.230;2024-01-16T06:37:19;0.90;99.90
51035;DHT22;37062;52.546;13.230;2024-01-16T06:39:47;1.00;99.90
51035;DHT22;37062;52.546;13.230;2024-01-16T06:42:15;1.00;99.90
51035;DHT22;37062;52.546;13.230;2024-01-16T06:44:45;1.00;99.90
51035;DHT22;37062;52.546;13.230;2024-01-16T06:47:13;1.10;99.90
51035;DHT22;37062;52.546;13.230;2024-01-16T06:49:42;1.20;99.90
51035;DHT22;37062;52.546;13.230;2024-01-16T06:52:10;1.20;99.90
51035;DHT22;37062;52.546;13.230;2024-01-16T06:54:39;1.30;99.90
51035;DHT22;37062;52.546;13.230;2024-01-16T06:57:07;1.40;99.90
51035;DHT22;37062;52.546;13.230;2024-01-16T06:59:35;1.40;99.90
51035;DHT22;37062;52.546;13.230;2024-01-16T07:02:05;1.50;99.90
51035;DHT22;37062;52.546;13.230;2024-01-16T07:04:34;1.50;99.90
51035;DHT22;37062;52.546;13.230;2024-01-16T07:07:02;1.40;99.90
51035;DHT22;37062;52.546;13.230;2024-01-16T07:09:30;1.40;99.90
51035;DHT22;37062;52.546;13.230;2024-01-16T07:11:59;1.40;99.90
51035;DHT22;37062;52.546;13.230;2024-01-16T07:14:27;1.40;99.90
51035;DHT22;37062;52.546;13.230;2024-01-16T07:16:56;1.40;99.90
51035;DHT22;37062;52.546;13.230;2024-01-16T07:19:25;1.50;99.90
51035;DHT22;37062;52.546;13.230;2024-01-16T07:21:54;1.50;99.90
51035;DHT22;37062;52.546;13.230;2024-01-16T07:24:22;1.50;99.90
51035;DHT22;37062;52.546;13.230;2024-01-16T07:26:50;1.50;99.90
51035;DHT22;37062;52.546;13.230;2024-01-16T07:29:21;1.50;99.90
51035;DHT22;37062;52.546;13.230;2024-01-16T07:31:49;1.60;99.90
51035;DHT22;37062;52.546;13.230;2024-01-16T07:34:17;1.60;99.90
51035;DHT22;37062;52.546;13.230;2024-01-16T07:36:50;1.60;99.90
51035;DHT22;37062;52.546;13.230;2024-01-16T07:39:18;1.60;99.90
51035;DHT22;37062;52.546;13.230;2024-01-16T07:41:47;1.70;99.90
51035;DHT22;37062;52.546;13.230;2024-01-16T07:44:16;1.70;99.90
51035;DHT22;37062;52.546;13.230;2024-01-16T07:46:44;1.70;99.90
51035;DHT22;37062;52.546;13.230;2024-01-16T07:49:12;1.80;99.90
51035;DHT22;37062;52.546;13.230;2024-01-16T07:51:41;1.80;99.90
51035;DHT22;37062;52.546;13.230;2024-01-16T07:54:11;1.80;99.90
51035;DHT22;37062;52.546;13.230;2024-01-16T07:56:40;1.90;99.90
51035;DHT22;37062;52.546;13.230;2024-01-16T07:59:08;1.90;99.90
51035;DHT22;37062;52.546;13.230;2024-01-16T08:01:36;1.90;99.90
51035;DHT22;37062;52.546;13.230;2024-01-16T08:04:05;2.00;99.90
51035;DHT22;37062;52.546;13.230;2024-01-16T08:06:34;2.00;99.90
51035;DHT22;37062;52.546;13.230;2024-01-16T08:09:03;2.00;99.90
51035;DHT22;37062;52.546;13.230;2024-01-16T08:11:33;2.00;99.90
51035;DHT22;37062;52.546;13.230;2024-01-16T08:14:03;2.10;99.90
51035;DHT22;37062;52.546;13.230;2024-01-16T08:16:31;2.10;99.90
51035;DHT22;37062;52.546;13.230;2024-01-16T08:19:00;2.20;99.90
51035;DHT22;37062;52.546;13.230;2024-01-16T08:21:30;2.30;99.90
51035;DHT22;37062;52.546;13.230;2024-01-16T08:23:58;2.30;99.90
51035;DHT22;37062;52.546;13.230;2024-01-16T08:26:27;2.40;99.90
51035;DHT22;37062;52.546;13.230;2024-01-16T08:28:57;2.40;99.90
51035;DHT22;37062;52.546;13.230;2024-01-16T08:31:25;2.40;99.90
51035;DHT22;37062;52.546;13.230;2024-01-16T08:33:54;2.50;99.90
51035;DHT22;37062;52.546;13.230;2024-01-16T08:36:24;2.50;99.90
51035;DHT22;37062;52.546;13.230;2024-01-16T08:38:53;2.50;99.90
51035;DHT22;37062;52.546;13.230;2024-01-16T08:41:22;2.60;99.90
51035;DHT22;37062;52.546;13.230;2024-01-16T08:43:50;2.70;99.90
51035;DHT22;37062;52.546;13.230;2024-01-16T08:46:21;2.80;99.90
51035;DHT22;37062;52.546;13.230;2024-01-16T08:48:49;2.80;99.90
51035;DHT22;37062;52.546;13.230;2024-01-16T08:51:18;2.80;99.90
51035;DHT22;37062;52.546;13.230;2024-01-16T08:53:46;2.90;99.90
51035;DHT22;37062;52.546;13.230;2024-01-16T08:56:14;2.90;99.90
51035;DHT22;37062;52.546;13.230;2024-01-16T08:58:44;3.00;99.90
51035;DHT22;37062;52.546;13.230;2024-01-16T09:01:13;3.00;99.90
51035;DHT22;37062;52.546;13.230;2024-01-16T09:03:43;3.00;99.90
51035;DHT22;37062;52.546;13.230;2024-01-16T09:06:11;3.00;99.90
51035;DHT22;37062;52.546;13.230;2024-01-16T09:08:40;3.00;99.90
51035;DHT22;37062;52.546;13.230;2024-01-16T09:11:08;3.10;99.90
51035;DHT22;37062;52.546;13.230;2024-01-16T09:13:38;3.10;99.90
51035;DHT22;37062;52.546;13.230;2024-01-16T09:16:06;3.20;99.90
51035;DHT22;37062;52.546;13.230;2024-01-16T09:18:34;3.20;99.90
51035;DHT22;37062;52.546;13.230;2024-01-16T09:21:04;3.10;99.90
51035;DHT22;37062;52.546;13.230;2024-01-16T09:23:33;3.20;99.90
51035;DHT22;37062;52.546;13.230;2024-01-16T09:26:01;3.30;99.90
51035;DHT22;37062;52.546;13.230;2024-01-16T09:28:29;3.30;99.90
51035;DHT22;37062;52.546;13.230;2024-01-16T09:30:58;3.40;99.90
51035;DHT22;37062;52.546;13.230;2024-01-16T09:33:26;3.40;99.90
51035;DHT22;37062;52.546;13.230;2024-01-16T09:35:55;3.40;99.90
51035;DHT22;37062;52.546;13.230;2024-01-16T09:38:25;3.30;99.90
51035;DHT22;37062;52.546;13.230;2024-01-16T09:40:53;3.40;99.90
51035;DHT22;37062;52.546;13.230;2024-01-16T09:43:27;3.40;99.90
51035;DHT22;37062;52.546;13.230;2024-01-16T09:45:56;3.30;99.90
51035;DHT22;37062;52.546;13.230;2024-01-16T09:48:29;3.40;99.90
51035;DHT22;37062;52.546;13.230;2024-01-16T09:50:59;3.50;99.90
51035;DHT22;37062;52.546;13.230;2024-01-16T09:53:29;3.60;99.90
51035;DHT22;37062;52.546;13.230;2024-01-16T09:56:02;3.70;99.90
51035;DHT22;37062;52.546;13.230;2024-01-16T09:58:34;3.90;99.90
51035;DHT22;37062;52.546;13.230;2024-01-16T10:01:04;4.00;99.90
51035;DHT22;37062;52.546;13.230;2024-01-16T10:03:34;4.10;99.90
51035;DHT22;37062;52.546;13.230;2024-01-16T10:06:04;4.20;99.90
51035;DHT22;37062;52.546;13.230;2024-01-16T10:08:37;4.20;99.90
51035;DHT22;37062;52.546;13.230;2024-01-16T10:11:05;4.30;99.90
51035;DHT22;37062;52.546;13.230;2024-01-16T10:13:36;4.30;99.90
51035;DHT22;37062;52.546;13.230;2024-01-16T10:16:05;4.40;99.90
51035;DHT22;37062;52.546;13.230;2024-01-16T10:18:34;4.50;99.90
51035;DHT22;37062;52.546;13.230;2024-01-16T10:21:05;4.50;99.90
51035;DHT22;37062;52.546;13.230;2024-01-16T10:23:49;4.60;99.90
51035;DHT22;37062;52.546;13.230;2024-01-16T10:26:18;4.60;99.90
51035;DHT22;37062;52.546;13.230;2024-01-16T10:28:49;4.60;99.90
51035;DHT22;37062;52.546;13.230;2024-01-16T10:31:17;4.70;99.90
51035;DHT22;37062;52.546;13.230;2024-01-16T10:33:45;4.80;99.90
51035;DHT22;37062;52.546;13.230;2024-01-16T10:36:14;4.80;99.90
51035;DHT22;37062;52.546;13.230;2024-01-16T10:38:45;4.80;99.90
51035;DHT22;37062;52.546;13.230;2024-01-16T10:41:16;4.90;99.90
51035;DHT22;37062;52.546;13.230;2024-01-16T10:43:45;5.00;99.90
51035;DHT22;37062;52.546;13.230;2024-01-16T10:46:14;5.10;99.90
51035;DHT22;37062;52.546;13.230;2024-01-16T10:48:44;5.10;99.90
51035;DHT22;37062;52.546;13.230;2024-01-16T10:51:14;5.10;99.90
51035;DHT22;37062;52.546;13.230;2024-01-16T10:53:44;5.10;99.90
51035;DHT22;37062;52.546;13.230;2024-01-16T10:56:17;5.10;99.90
51035;DHT22;37062;52.546;13.230;2024-01-16T10:58:49;5.10;99.90
51035;DHT22;37062;52.546;13.230;2024-01-16T11:01:22;5.00;99.90
51035;DHT22;37062;52.546;13.230;2024-01-16T11:03:50;4.90;99.90
51035;DHT22;37062;52.546;13.230;2024-01-16T11:06:20;4.80;99.90
51035;DHT22;37062;52.546;13.230;2024-01-16T11:08:49;4.80;99.90
51035;DHT22;37062;52.546;13.230;2024-01-16T11:11:20;4.70;99.90
51035;DHT22;37062;52.546;13.230;2024-01-16T11:13:51;4.70;99.90
51035;DHT22;37062;52.546;13.230;2024-01-16T11:16:20;4.80;99.90
51035;DHT22;37062;52.546;13.230;2024-01-16T11:18:48;4.80;99.90
51035;DHT22;37062;52.546;13.230;2024-01-16T11:21:17;4.80;99.90
51035;DHT22;37062;52.546;13.230;2024-01-16T11:23:46;4.80;99.90
51035;DHT22;37062;52.546;13.230;2024-01-16T11:26:26;4.90;99.90
51035;DHT22;37062;52.546;13.230;2024-01-16T11:28:56;4.90;99.90
51035;DHT22;37062;52.546;13.230;2024-01-16T11:31:30;4.90;99.90
51035;DHT22;37062;52.546;13.230;2024-01-16T11:33:59;4.90;99.90
51035;DHT22;37062;52.546;13.230;2024-01-16T11:36:50;4.80;99.90
51035;DHT22;37062;52.546;13.230;2024-01-16T11:39:22;4.80;99.90
51035;DHT22;37062;52.546;13.230;2024-01-16T11:41:55;4.70;99.90
51035;DHT22;37062;52.546;13.230;2024-01-16T11:44:43;4.80;99.90
51035;DHT22;37062;52.546;13.230;2024-01-16T11:47:18;4.80;99.90
51035;DHT22;37062;52.546;13.230;2024-01-16T11:49:48;4.70;99.90
51035;DHT22;37062;52.546;13.230;2024-01-16T11:52:39;4.70;99.90
51035;DHT22;37062;52.546;13.230;2024-01-16T11:55:25;4.70;99.90
51035;DHT22;37062;52.546;13.230;2024-01-16T11:58:07;4.70;99.90
51035;DHT22;37062;52.546;13.230;2024-01-16T12:00:41;4.70;99.90
51035;DHT22;37062;52.546;13.230;2024-01-16T12:03:09;4.70;99.90
51035;DHT22;37062;52.546;13.230;2024-01-16T12:05:41;4.70;99.90
51035;DHT22;37062;52.546;13.230;2024-01-16T12:08:10;4.80;99.90
51035;DHT22;37062;52.546;13.230;2024-01-16T12:10:46;4.80;99.90
51035;DHT22;37062;52.546;13.230;2024-01-16T12:13:16;4.70;99.90
51035;DHT22;37062;52.546;13.230;2024-01-16T12:15:45;4.80;99.90
51035;DHT22;37062;52.546;13.230;2024-01-16T12:18:18;4.80;99.90
51035;DHT22;37062;52.546;13.230;2024-01-16T12:21:08;4.80;99.90
51035;DHT22;37062;52.546;13.230;2024-01-16T12:23:37;4.80;99.90
51035;DHT22;37062;52.546;13.230;2024-01-16T12:26:20;4.80;99.90
51035;DHT22;37062;52.546;13.230;2024-01-16T12:28:52;4.90;99.90
51035;DHT22;37062;52.546;13.230;2024-01-16T12:31:26;4.80;99.90
51035;DHT22;37062;52.546;13.230;2024-01-16T12:34:04;4.70;99.90
51035;DHT22;37062;52.546;13.230;2024-01-16T12:36:35;4.70;99.90
51035;DHT22;37062;52.546;13.230;2024-01-16T12:39:04;4.70;99.90
51035;DHT22;37062;52.546;13.230;2024-01-16T12:41:36;4.80;99.90
51035;DHT22;37062;52.546;13.230;2024-01-16T12:44:10;4.80;99.90
51035;DHT22;37062;52.546;13.230;2024-01-16T12:46:44;5.00;99.90
51035;DHT22;37062;52.546;13.230;2024-01-16T12:49:13;5.00;99.90
51035;DHT22;37062;52.546;13.230;2024-01-16T12:51:42;5.00;99.90
51035;DHT22;37062;52.546;13.230;2024-01-16T12:54:12;4.90;99.90
51035;DHT22;37062;52.546;13.230;2024-01-16T12:56:41;4.90;99.90
51035;DHT22;37062;52.546;13.230;2024-01-16T12:59:11;4.90;99.90
51035;DHT22;37062;52.546;13.230;2024-01-16T13:01:41;4.90;99.90
51035;DHT22;37062;52.546;13.230;2024-01-16T13:04:16;4.80;99.90
51035;DHT22;37062;52.546;13.230;2024-01-16T13:06:46;4.80;99.90
51035;DHT22;37062;52.546;13.230;2024-01-16T13:09:16;4.80;99.90
51035;DHT22;37062;52.546;13.230;2024-01-16T13:11:49;4.80;99.90
51035;DHT22;37062;52.546;13.230;2024-01-16T13:14:19;4.70;99.90
51035;DHT22;37062;52.546;13.230;2024-01-16T13:16:49;4.60;99.90
51035;DHT22;37062;52.546;13.230;2024-01-16T13:19:18;4.60;99.90
51035;DHT22;37062;52.546;13.230;2024-01-16T13:21:47;4.60;99.90
51035;DHT22;37062;52.546;13.230;2024-01-16T13:24:16;4.60;99.90
51035;DHT22;37062;52.546;13.230;2024-01-16T13:26:48;4.60;99.90
51035;DHT22;37062;52.546;13.230;2024-01-16T13:29:18;4.50;99.90
51035;DHT22;37062;52.546;13.230;2024-01-16T13:31:47;4.50;99.90
51035;DHT22;37062;52.546;13.230;2024-01-16T13:34:16;4.40;99.90
51035;DHT22;37062;52.546;13.230;2024-01-16T13:36:48;4.40;99.90
51035;DHT22;37062;52.546;13.230;2024-01-16T13:39:38;4.40;99.90
51035;DHT22;37062;52.546;13.230;2024-01-16T13:42:06;4.40;99.90
51035;DHT22;37062;52.546;13.230;2024-01-16T13:44:36;4.40;99.90
51035;DHT22;37062;52.546;13.230;2024-01-16T13:47:05;4.40;99.90
51035;DHT22;37062;52.546;13.230;2024-01-16T13:49:40;4.30;99.90
51035;DHT22;37062;52.546;13.230;2024-01-16T13:52:08;4.30;99.90
51035;DHT22;37062;52.546;13.230;2024-01-16T13:54:37;4.20;99.90
51035;DHT22;37062;52.546;13.230;2024-01-16T13:57:06;4.20;99.90
51035;DHT22;37062;52.546;13.230;2024-01-16T13:59:40;4.20;99.90
51035;DHT22;37062;52.546;13.230;2024-01-16T14:02:09;4.20;99.90
51035;DHT22;37062;52.546;13.230;2024-01-16T14:04:37;4.20;99.90
51035;DHT22;37062;52.546;13.230;2024-01-16T14:07:05;4.30;99.90
51035;DHT22;37062;52.546;13.230;2024-01-16T14:09:40;4.30;99.90
51035;DHT22;37062;52.546;13.230;2024-01-16T14:12:12;4.40;99.90
51035;DHT22;37062;52.546;13.230;2024-01-16T14:14:43;4.40;99.90
51035;DHT22;37062;52.546;13.230;2024-01-16T14:17:11;4.40;99.90
51035;DHT22;37062;52.546;13.230;2024-01-16T14:19:40;4.30;99.90
51035;DHT22;37062;52.546;13.230;2024-01-16T14:22:09;4.30;99.90
51035;DHT22;37062;52.546;13.230;2024-01-16T14:24:37;4.30;99.90
51035;DHT22;37062;52.546;13.230;2024-01-16T14:27:06;4.30;99.90
51035;DHT22;37062;52.546;13.230;2024-01-16T14:29:37;4.20;99.90
51035;DHT22;37062;52.546;13.230;2024-01-16T14:32:08;4.10;99.90
51035;DHT22;37062;52.546;13.230;2024-01-16T14:34:37;4.10;99.90
51035;DHT22;37062;52.546;13.230;2024-01-16T14:37:06;4.10;99.90
51035;DHT22;37062;52.546;13.230;2024-01-16T14:39:34;4.10;99.90
51035;DHT22;37062;52.546;13.230;2024-01-16T14:42:04;4.10;99.90
51035;DHT22;37062;52.546;13.230;2024-01-16T14:44:33;4.10;99.90
51035;DHT22;37062;52.546;13.230;2024-01-16T14:47:02;4.00;99.90
51035;DHT22;37062;52.546;13.230;2024-01-16T14:49:32;4.00;99.90
51035;DHT22;37062;52.546;13.230;2024-01-16T14:52:01;4.10;99.90
51035;DHT22;37062;52.546;13.230;2024-01-16T14:54:29;4.00;99.90
51035;DHT22;37062;52.546;13.230;2024-01-16T14:56:58;3.90;99.90
51035;DHT22;37062;52.546;13.230;2024-01-16T14:59:26;3.80;99.90
51035;DHT22;37062;52.546;13.230;2024-01-16T15:01:54;3.80;99.90
51035;DHT22;37062;52.546;13.230;2024-01-16T15:04:22;3.80;99.90
51035;DHT22;37062;52.546;13.230;2024-01-16T15:06:52;3.80;99.90
51035;DHT22;37062;52.546;13.230;2024-01-16T15:09:23;3.80;99.90
51035;DHT22;37062;52.546;13.230;2024-01-16T15:11:51;3.80;99.90
51035;DHT22;37062;52.546;13.230;2024-01-16T15:14:19;3.70;99.90
51035;DHT22;37062;52.546;13.230;2024-01-16T15:16:48;3.60;99.90
51035;DHT22;37062;52.546;13.230;2024-01-16T15:19:17;3.60;99.90
51035;DHT22;37062;52.546;13.230;2024-01-16T15:21:46;3.50;99.90
51035;DHT22;37062;52.546;13.230;2024-01-16T15:24:15;3.60;99.90
51035;DHT22;37062;52.546;13.230;2024-01-16T15:26:48;3.50;99.90
51035;DHT22;37062;52.546;13.230;2024-01-16T15:29:17;3.50;99.90
51035;DHT22;37062;52.546;13.230;2024-01-16T15:31:45;3.60;99.90
51035;DHT22;37062;52.546;13.230;2024-01-16T15:34:14;3.60;99.90
51035;DHT22;37062;52.546;13.230;2024-01-16T15:36:43;3.70;99.90
51035;DHT22;37062;52.546;13.230;2024-01-16T15:39:12;3.70;99.90
51035;DHT22;37062;52.546;13.230;2024-01-16T15:41:44;3.70;99.90
51035;DHT22;37062;52.546;13.230;2024-01-16T15:44:12;3.60;99.90